Time;durP1;ratioP1;P1;durP2;ratioP2;P2;SDS_P1;SDS_P2;PMS_P1;PMS_P2;Temp;Humidity;BMP_temperature;BMP_pressure;BME280_temperature;BME280_humidity;BME280_pressure;Samples;Min_cycle;Max_cycle;Signal;HPM_P1;HPM_P2
2022/12/06 00:02:14;;;;;;;25.38;15.75;;;4.30;1.00;;;;;;6169079;23;20329;-84
2022/12/06 00:04:46;;;;;;;25.95;17.42;;;4.40;1.00;;;;;;6174203;23;20433;-81
2022/12/06 00:07:13;;;;;;;24.30;15.77;;;4.30;1.00;;;;;;6171752;23;20266;-80
2022/12/06 00:09:45;;;;;;;21.08;15.27;;;4.20;1.00;;;;;;6169924;23;20219;-81
2022/12/06 00:12:19;;;;;;;20.88;14.65;;;4.20;1.00;;;;;;6168650;23;20214;-80
2022/12/06 00:14:51;;;;;;;21.80;14.48;;;4.20;1.00;;;;;;6169367;23;20220;-82
2022/12/06 00:17:23;;;;;;;20.40;14.45;;;4.20;1.00;;;;;;6169944;23;20275;-80
2022/12/06 00:19:50;;;;;;;21.15;14.35;;;4.20;1.00;;;;;;6169530;23;20704;-81
2022/12/06 00:22:22;;;;;;;24.42;16.60;;;4.20;1.00;;;;;;6165955;23;20197;-79
2022/12/06 00:24:51;;;;;;;20.40;14.75;;;4.30;1.00;;;;;;6172379;23;20221;-81
2022/12/06 00:27:23;;;;;;;22.38;15.45;;;4.30;1.00;;;;;;6171309;23;20225;-81
2022/12/06 00:29:53;;;;;;;26.05;16.55;;;4.20;1.00;;;;;;6171096;23;20265;-81
2022/12/06 00:32:22;;;;;;;23.10;15.88;;;4.30;1.00;;;;;;6168686;23;20239;-82
2022/12/06 00:34:52;;;;;;;23.98;15.43;;;4.30;1.00;;;;;;6168280;23;20242;-81
2022/12/06 00:37:22;;;;;;;23.38;15.48;;;4.30;1.00;;;;;;6168117;23;20202;-82
2022/12/06 00:39:52;;;;;;;21.90;15.32;;;4.30;1.00;;;;;;6170991;23;20210;-82
2022/12/06 00:42:22;;;;;;;23.25;18.05;;;4.20;1.00;;;;;;6169993;23;20333;-84
2022/12/06 00:44:52;;;;;;;24.40;15.70;;;4.20;1.00;;;;;;6171335;23;20373;-83
2022/12/06 00:47:22;;;;;;;23.13;14.98;;;4.20;1.00;;;;;;6166746;23;20198;-81
2022/12/06 00:49:50;;;;;;;22.13;16.05;;;4.30;1.00;;;;;;6171125;23;20274;-85
2022/12/06 00:52:22;;;;;;;20.60;14.95;;;4.20;1.00;;;;;;6175974;23;20210;-83
2022/12/06 00:54:49;;;;;;;24.73;16.00;;;4.20;1.00;;;;;;6172041;23;20221;-83
2022/12/06 01:00:04;;;;;;;22.08;15.35;;;4.30;1.00;;;;;;6169061;23;20262;-80
2022/12/06 01:02:31;;;;;;;20.10;13.98;;;4.30;1.00;;;;;;6166786;23;20214;-81
2022/12/06 01:05:07;;;;;;;20.88;14.70;;;4.30;1.00;;;;;;6168787;23;20262;-82
2022/12/06 01:07:34;;;;;;;20.38;13.70;;;4.30;1.00;;;;;;6168695;23;20221;-84
2022/12/06 01:10:02;;;;;;;20.30;14.80;;;4.20;1.00;;;;;;6169962;23;20216;-80
2022/12/06 01:12:29;;;;;;;20.50;13.93;;;4.10;1.00;;;;;;6167958;23;20283;-81
2022/12/06 01:15:02;;;;;;;21.95;15.23;;;4.10;1.00;;;;;;6170811;23;20318;-84
2022/12/06 01:17:31;;;;;;;20.25;14.48;;;4.10;1.00;;;;;;6163788;23;20218;-80
2022/12/06 01:19:57;;;;;;;19.95;14.88;;;4.20;1.00;;;;;;6164474;23;20209;-81
2022/12/06 01:22:25;;;;;;;18.50;13.07;;;4.10;1.00;;;;;;6158921;23;20236;-81
2022/12/06 01:24:52;;;;;;;19.85;14.25;;;4.20;1.00;;;;;;6167857;23;20263;-83
2022/12/06 01:27:19;;;;;;;22.15;14.98;;;4.20;1.00;;;;;;6170209;23;20209;-80
2022/12/06 01:29:50;;;;;;;21.08;13.82;;;4.10;1.00;;;;;;6171475;23;20241;-84
2022/12/06 01:32:19;;;;;;;18.95;13.00;;;4.10;1.00;;;;;;6171785;23;20214;-81
2022/12/06 01:34:54;;;;;;;23.05;14.65;;;4.10;1.00;;;;;;6168499;23;20227;-81
2022/12/06 01:37:21;;;;;;;18.00;12.40;;;4.20;1.00;;;;;;6169594;23;20277;-80
2022/12/06 01:39:56;;;;;;;16.55;11.60;;;4.10;1.00;;;;;;6171913;23;20196;-81
2022/12/06 01:42:25;;;;;;;18.30;13.23;;;4.10;1.00;;;;;;6169223;23;20221;-82
2022/12/06 01:44:56;;;;;;;17.30;12.30;;;4.20;1.00;;;;;;6168204;23;20222;-82
2022/12/06 01:47:29;;;;;;;17.95;12.75;;;4.20;1.00;;;;;;6167509;23;20222;-80
2022/12/06 01:50:02;;;;;;;18.13;12.50;;;4.10;1.00;;;;;;6169724;23;20207;-80
2022/12/06 01:52:36;;;;;;;18.88;13.13;;;4.10;1.00;;;;;;6168084;23;20218;-83
2022/12/06 01:55:17;;;;;;;19.98;13.32;;;4.20;1.00;;;;;;6169447;23;20206;-81
2022/12/06 01:57:45;;;;;;;18.83;12.13;;;4.20;1.00;;;;;;6168980;23;20206;-81
2022/12/06 02:00:13;;;;;;;18.05;11.75;;;4.20;1.00;;;;;;6169295;23;20211;-81
2022/12/06 02:02:40;;;;;;;17.15;11.55;;;4.20;1.00;;;;;;6167091;23;20221;-81
2022/12/06 02:05:14;;;;;;;17.70;12.18;;;4.10;1.00;;;;;;6168496;23;20242;-81
2022/12/06 02:07:42;;;;;;;16.55;11.98;;;4.00;1.00;;;;;;6171364;23;20253;-81
2022/12/06 02:10:13;;;;;;;18.10;12.88;;;4.10;1.00;;;;;;6168028;23;20191;-82
2022/12/06 02:12:41;;;;;;;18.35;11.85;;;4.10;1.00;;;;;;6169939;23;20699;-81
2022/12/06 02:15:12;;;;;;;18.70;13.68;;;4.10;1.00;;;;;;6172735;23;20217;-83
2022/12/06 02:17:51;;;;;;;18.15;12.55;;;4.00;1.00;;;;;;6171799;23;20218;-80
2022/12/06 02:20:33;;;;;;;18.25;12.68;;;4.00;1.00;;;;;;6170993;23;20693;-84
2022/12/06 02:23:42;;;;;;;18.33;13.02;;;4.00;1.00;;;;;;6168004;23;20212;-84
2022/12/06 02:26:44;;;;;;;16.63;12.00;;;3.80;1.00;;;;;;6169279;23;20263;-81
2022/12/06 02:30:07;;;;;;;18.10;12.55;;;3.80;1.00;;;;;;6089117;23;20213;-81
2022/12/06 02:33:04;;;;;;;21.48;13.32;;;3.80;1.00;;;;;;6153639;23;20223;-81
2022/12/06 02:35:41;;;;;;;17.25;12.30;;;3.80;1.00;;;;;;6170951;23;20220;-80
2022/12/06 02:38:34;;;;;;;19.05;13.27;;;3.80;1.00;;;;;;6173237;23;20213;-82
2022/12/06 02:41:32;;;;;;;20.00;13.57;;;3.80;1.00;;;;;;6172860;23;20281;-80
2022/12/06 02:44:14;;;;;;;19.45;12.55;;;3.80;1.00;;;;;;6087878;23;20678;-80
2022/12/06 02:46:53;;;;;;;18.85;12.98;;;3.80;1.00;;;;;;6170306;23;20229;-85
2022/12/06 02:49:32;;;;;;;17.67;12.70;;;3.80;1.00;;;;;;6169816;23;20218;-82
2022/12/06 02:52:05;;;;;;;19.67;14.80;;;3.70;1.00;;;;;;6156284;23;21100;-82
2022/12/06 02:54:33;;;;;;;19.83;13.90;;;3.70;1.00;;;;;;6165520;23;20274;-83
2022/12/06 02:57:04;;;;;;;19.38;11.93;;;3.70;1.00;;;;;;6169479;23;20214;-82
2022/12/06 02:59:33;;;;;;;17.08;11.48;;;3.70;1.00;;;;;;6169093;23;20226;-84
2022/12/06 03:02:08;;;;;;;15.20;11.07;;;3.70;1.00;;;;;;6168073;23;20191;-81
2022/12/06 03:05:01;;;;;;;17.73;11.32;;;3.70;1.00;;;;;;6168673;23;20736;-82
2022/12/06 03:07:45;;;;;;;16.30;10.95;;;3.60;1.00;;;;;;6168615;23;20224;-82
2022/12/06 03:10:41;;;;;;;17.67;11.25;;;3.70;1.00;;;;;;6167686;23;20291;-80
2022/12/06 03:13:18;;;;;;;15.70;10.10;;;3.70;1.00;;;;;;6175062;23;20222;-79
2022/12/06 03:15:52;;;;;;;17.15;11.40;;;3.70;1.00;;;;;;6168344;23;20213;-83
2022/12/06 03:18:30;;;;;;;16.90;11.70;;;3.70;1.00;;;;;;6168222;23;20217;-81
2022/12/06 03:21:07;;;;;;;19.73;12.32;;;3.70;1.00;;;;;;6168270;23;20226;-80
2022/12/06 03:23:45;;;;;;;18.75;12.25;;;3.70;1.00;;;;;;6168282;23;20207;-80
2022/12/06 03:26:25;;;;;;;17.80;12.00;;;3.70;1.00;;;;;;6169159;23;20217;-79
2022/12/06 03:28:55;;;;;;;18.98;11.93;;;3.70;1.00;;;;;;6167071;23;20245;-83
2022/12/06 03:31:25;;;;;;;18.02;11.85;;;3.80;1.00;;;;;;6170853;23;20253;-81
2022/12/06 03:34:02;;;;;;;18.60;13.45;;;3.90;1.00;;;;;;6170484;23;20891;-80
2022/12/06 03:36:32;;;;;;;18.63;12.90;;;3.90;1.00;;;;;;6167518;23;20222;-79
2022/12/06 03:39:04;;;;;;;21.58;13.40;;;3.80;1.00;;;;;;6169723;23;20294;-79
2022/12/06 03:41:44;;;;;;;19.90;13.48;;;3.70;1.00;;;;;;6171208;23;20461;-80
2022/12/06 03:44:12;;;;;;;23.05;12.85;;;3.60;1.00;;;;;;6170491;23;20217;-81
2022/12/06 03:46:50;;;;;;;20.48;14.43;;;3.70;1.00;;;;;;6168074;23;20229;-79
2022/12/06 03:49:32;;;;;;;18.30;12.88;;;3.70;1.00;;;;;;6164156;23;20220;-82
2022/12/06 03:52:09;;;;;;;19.63;13.35;;;3.70;1.00;;;;;;6166728;23;20220;-81
2022/12/06 03:54:44;;;;;;;20.98;13.05;;;3.60;1.00;;;;;;6169958;23;20223;-81
2022/12/06 03:57:13;;;;;;;18.55;12.73;;;3.60;1.00;;;;;;6165163;23;21161;-76
2022/12/06 03:59:43;;;;;;;21.23;13.93;;;3.60;1.00;;;;;;6165768;23;20198;-80
2022/12/06 04:02:10;;;;;;;20.27;13.70;;;3.60;1.00;;;;;;6165485;23;20220;-81
2022/12/06 04:04:41;;;;;;;22.48;14.05;;;3.70;1.00;;;;;;6162559;23;20248;-81
2022/12/06 04:07:10;;;;;;;25.55;14.27;;;3.70;1.00;;;;;;6168375;23;20219;-80
2022/12/06 04:09:55;;;;;;;21.73;14.20;;;3.70;1.00;;;;;;6167717;23;20210;-81
2022/12/06 04:15:11;;;;;;;19.65;13.75;;;3.60;1.00;;;;;;6169086;23;20889;-78
2022/12/06 04:23:02;;;;;;;22.33;14.23;;;3.50;1.00;;;;;;6168367;23;20217;-79
2022/12/06 04:23:21;;;;;;;20.65;14.23;;;3.50;1.00;;;;;;6165626;23;21015;-77
2022/12/06 04:25:48;;;;;;;20.27;13.60;;;3.60;1.00;;;;;;6166903;23;20981;-79
2022/12/06 04:39:26;;;;;;;21.92;14.52;;;3.60;1.00;;;;;;6165571;23;20214;-78
2022/12/06 04:44:48;;;;;;;18.67;13.50;;;3.60;1.00;;;;;;6152553;23;20218;-80
2022/12/06 04:47:15;;;;;;;22.60;15.10;;;3.60;1.00;;;;;;6168401;23;20218;-81
2022/12/06 04:49:43;;;;;;;21.55;14.35;;;3.60;1.00;;;;;;6168555;23;20205;-80
2022/12/06 04:52:12;;;;;;;20.10;12.73;;;3.70;1.00;;;;;;6168102;23;21013;-76
2022/12/06 04:54:44;;;;;;;20.17;13.35;;;3.70;1.00;;;;;;6166714;23;20204;-82
2022/12/06 04:57:14;;;;;;;19.33;12.32;;;3.70;1.00;;;;;;6169174;23;20250;-82
2022/12/06 04:59:54;;;;;;;17.10;10.65;;;3.70;1.00;;;;;;6172619;23;20222;-82
2022/12/06 05:02:24;;;;;;;16.67;10.98;;;3.60;1.00;;;;;;6166366;23;20277;-79
2022/12/06 05:04:51;;;;;;;16.67;10.00;;;3.60;1.00;;;;;;6171607;23;20701;-80
2022/12/06 05:07:22;;;;;;;16.20;11.25;;;3.60;1.00;;;;;;6170997;23;20213;-83
2022/12/06 05:09:51;;;;;;;15.32;9.82;;;3.70;1.00;;;;;;6171103;23;20212;-78
2022/12/06 05:12:23;;;;;;;18.00;10.90;;;3.70;1.00;;;;;;6164991;23;20215;-78
2022/12/06 05:14:50;;;;;;;15.88;11.13;;;3.70;1.00;;;;;;6168378;23;20972;-81
2022/12/06 05:17:19;;;;;;;17.10;11.13;;;3.70;1.00;;;;;;6170580;23;20222;-83
2022/12/06 05:19:47;;;;;;;20.08;14.23;;;3.70;1.00;;;;;;6170489;23;20232;-81
2022/12/06 05:22:14;;;;;;;18.08;11.65;;;3.70;1.00;;;;;;6166966;23;20872;-80
2022/12/06 05:24:45;;;;;;;16.30;10.30;;;3.70;1.00;;;;;;6170191;23;20228;-81
2022/12/06 05:27:13;;;;;;;16.42;11.68;;;3.80;1.00;;;;;;6168013;23;20219;-82
2022/12/06 05:29:43;;;;;;;16.90;12.43;;;3.80;1.00;;;;;;6167512;23;20278;-80
2022/12/06 05:32:10;;;;;;;16.52;10.32;;;3.90;1.00;;;;;;6165828;23;20210;-77
2022/12/06 05:34:42;;;;;;;13.90;9.52;;;4.00;1.00;;;;;;6165836;23;20218;-78
2022/12/06 05:37:17;;;;;;;13.82;9.35;;;3.90;1.00;;;;;;6159485;23;20333;-78
2022/12/06 05:39:45;;;;;;;14.35;8.80;;;4.00;1.00;;;;;;6162669;23;20382;-80
2022/12/06 05:42:13;;;;;;;14.48;8.18;;;4.00;1.00;;;;;;6167012;23;20221;-81
2022/12/06 05:44:41;;;;;;;13.32;8.88;;;4.00;1.00;;;;;;6166885;23;20221;-80
2022/12/06 05:47:15;;;;;;;13.85;7.82;;;3.90;1.00;;;;;;6167220;23;20316;-80
2022/12/06 05:49:43;;;;;;;14.20;9.38;;;4.00;1.00;;;;;;6167458;23;20232;-82
2022/12/06 05:52:10;;;;;;;14.18;8.57;;;4.00;1.00;;;;;;6167194;23;20215;-80
2022/12/06 05:54:37;;;;;;;11.82;8.20;;;4.10;1.00;;;;;;6167248;23;20218;-82
2022/12/06 05:57:04;;;;;;;12.80;7.65;;;4.00;1.00;;;;;;6166807;23;20220;-82
2022/12/06 05:59:35;;;;;;;11.50;7.80;;;4.00;1.00;;;;;;6167102;23;20215;-83
2022/12/06 06:02:05;;;;;;;12.13;6.80;;;3.90;1.00;;;;;;6167505;23;20220;-82
2022/12/06 06:04:32;;;;;;;11.30;7.45;;;3.90;1.00;;;;;;6173352;23;21014;-82
2022/12/06 06:07:03;;;;;;;10.50;6.85;;;3.90;1.00;;;;;;6166150;23;20203;-77
2022/12/06 06:09:30;;;;;;;12.65;8.60;;;3.80;1.00;;;;;;6162078;23;20257;-80
2022/12/06 06:11:59;;;;;;;13.70;7.78;;;3.80;1.00;;;;;;6164048;23;20214;-79
2022/12/06 06:14:26;;;;;;;14.57;8.55;;;3.70;1.00;;;;;;6166505;23;20228;-82
2022/12/06 06:16:54;;;;;;;14.73;8.63;;;3.60;1.00;;;;;;6167328;23;20265;-81
2022/12/06 06:19:28;;;;;;;12.25;7.60;;;3.60;1.00;;;;;;6167334;23;20213;-80
2022/12/06 06:21:55;;;;;;;14.48;8.80;;;3.60;1.00;;;;;;6166969;23;20687;-79
2022/12/06 06:24:24;;;;;;;14.45;9.15;;;3.60;1.00;;;;;;6169927;23;20218;-79
2022/12/06 06:26:51;;;;;;;13.50;9.13;;;3.60;1.00;;;;;;6166335;23;20627;-82
2022/12/06 06:29:24;;;;;;;12.48;8.32;;;3.60;1.00;;;;;;6170605;23;20214;-81
2022/12/06 06:31:56;;;;;;;15.95;10.35;;;3.60;1.00;;;;;;6168408;23;20757;-81
2022/12/06 06:34:24;;;;;;;23.13;10.32;;;3.60;1.00;;;;;;6167788;23;20214;-79
2022/12/06 06:36:53;;;;;;;15.77;10.10;;;3.60;1.00;;;;;;6163812;23;20345;-79
2022/12/06 06:39:24;;;;;;;14.55;9.45;;;3.70;1.00;;;;;;6167131;23;20210;-77
2022/12/06 06:41:54;;;;;;;16.50;10.00;;;3.70;1.00;;;;;;6166820;23;20349;-77
2022/12/06 06:44:23;;;;;;;14.93;9.13;;;3.70;1.00;;;;;;6167497;23;20218;-77
2022/12/06 06:46:50;;;;;;;14.13;9.00;;;3.70;1.00;;;;;;6165345;23;20975;-76
2022/12/06 06:49:23;;;;;;;13.02;9.18;;;3.70;1.00;;;;;;6168808;23;20222;-77
2022/12/06 06:51:50;;;;;;;16.95;12.68;;;3.60;1.00;;;;;;6168039;23;20915;-77
2022/12/06 06:54:23;;;;;;;13.95;9.45;;;3.60;1.00;;;;;;6164936;23;20332;-78
2022/12/06 06:56:50;;;;;;;15.27;10.18;;;3.60;1.00;;;;;;6167627;23;20219;-77
2022/12/06 06:59:24;;;;;;;15.63;9.45;;;3.70;1.00;;;;;;6166224;23;20998;-78
2022/12/06 07:01:51;;;;;;;13.98;9.07;;;3.80;1.00;;;;;;6167358;23;20283;-76
2022/12/06 07:04:27;;;;;;;12.95;8.75;;;3.80;1.00;;;;;;6169415;23;20219;-80
2022/12/06 07:06:54;;;;;;;13.18;9.10;;;3.70;1.00;;;;;;6171395;23;20245;-80
2022/12/06 07:09:24;;;;;;;14.40;10.20;;;3.80;1.00;;;;;;6170453;23;20210;-78
2022/12/06 07:11:56;;;;;;;14.98;9.63;;;3.70;1.00;;;;;;6171938;23;20215;-80
2022/12/06 07:14:23;;;;;;;14.98;10.48;;;3.80;1.00;;;;;;6171683;23;20213;-78
2022/12/06 07:16:50;;;;;;;15.60;11.10;;;3.80;1.00;;;;;;6168854;23;20221;-78
2022/12/06 07:19:23;;;;;;;15.50;9.80;;;3.80;1.00;;;;;;6168835;23;20218;-79
2022/12/06 07:21:55;;;;;;;14.63;9.88;;;3.80;1.00;;;;;;6170269;23;20224;-76
2022/12/06 07:24:27;;;;;;;15.68;10.25;;;3.80;1.00;;;;;;6171948;23;20210;-79
2022/12/06 07:33:36;;;;;;;16.77;11.70;;;3.80;1.00;;;;;;6075755;23;20237;-85
2022/12/06 07:48:12;;;;;;;13.57;9.77;;;3.90;1.00;;;;;;6146336;23;20223;-84
2022/12/06 07:51:22;;;;;;;;;;;;;;;;;;;;;
2022/12/06 07:54:02;;;;;;;13.63;9.73;;;3.80;1.00;;;;;;6205178;22;49316;-83
2022/12/06 07:57:01;;;;;;;14.00;9.40;;;3.80;1.00;;;;;;6173913;23;20217;-85
2022/12/06 07:59:35;;;;;;;14.07;9.90;;;3.90;1.00;;;;;;6204623;22;20216;-86
2022/12/06 08:02:18;;;;;;;11.80;8.40;;;3.80;1.00;;;;;;6207707;22;20229;-85
2022/12/06 08:04:45;;;;;;;16.25;8.73;;;3.90;1.00;;;;;;6169023;23;20213;-84
2022/12/06 08:15:35;;;;;;;14.20;9.27;;;4.10;1.00;;;;;;6225490;22;20260;-88
2022/12/06 08:18:12;;;;;;;14.57;9.38;;;4.10;1.00;;;;;;6238396;22;20212;-89
2022/12/06 08:23:25;;;;;;;14.95;8.65;;;4.00;1.00;;;;;;6199199;22;20223;-86
2022/12/06 08:28:45;;;;;;;13.73;9.25;;;4.00;1.00;;;;;;6121639;22;20411;-83
2022/12/06 08:31:24;;;;;;;13.73;9.25;;;3.90;1.00;;;;;;6191002;22;20213;-85
2022/12/06 08:33:58;;;;;;;13.10;9.18;;;3.90;1.00;;;;;;6200172;22;20212;-85
2022/12/06 08:42:06;;;;;;;12.00;7.93;;;3.80;1.00;;;;;;6234505;22;20252;-84
2022/12/06 08:44:36;;;;;;;12.70;7.97;;;3.80;1.00;;;;;;6233362;23;20184;-83
2022/12/06 09:05:55;;;;;;;15.88;11.30;;;3.80;1.00;;;;;;6239880;22;20196;-82
2022/12/06 09:08:26;;;;;;;12.95;8.05;;;3.80;1.00;;;;;;6223301;22;20217;-92
2022/12/06 09:14:12;;;;;;;;;;;;;;;;;;;;;
2022/12/06 09:17:05;;;;;;;11.25;6.70;;;4.00;1.00;;;;;;6219497;22;20221;-86
2022/12/06 09:19:46;;;;;;;12.55;8.05;;;4.00;1.00;;;;;;6240931;22;20220;-83
2022/12/06 09:26:17;;;;;;;10.77;6.30;;;3.90;1.00;;;;;;5972674;23;20222;-82
2022/12/06 09:33:55;;;;;;;10.80;6.80;;;4.00;1.00;;;;;;6193625;23;20264;-82
2022/12/06 09:36:44;;;;;;;10.93;7.32;;;4.10;1.00;;;;;;6185346;23;20212;-84
2022/12/06 09:39:26;;;;;;;10.27;6.85;;;4.10;1.00;;;;;;6185086;23;20205;-86
2022/12/06 09:45:33;;;;;;;10.00;6.25;;;4.10;1.00;;;;;;6195399;23;20215;-81
2022/12/06 09:48:34;;;;;;;11.10;6.82;;;4.00;1.00;;;;;;6211554;23;20294;-85
2022/12/06 09:51:22;;;;;;;9.88;6.18;;;4.00;1.00;;;;;;6207309;23;20685;-83
2022/12/06 09:54:03;;;;;;;11.70;7.82;;;4.00;1.00;;;;;;6206474;23;20224;-84
2022/12/06 09:57:03;;;;;;;12.05;7.13;;;4.00;1.00;;;;;;6205942;23;20289;-90
2022/12/06 09:59:53;;;;;;;11.00;7.75;;;4.00;1.00;;;;;;6177960;22;21311;-81
2022/12/06 10:06:04;;;;;;;11.05;6.93;;;4.00;1.00;;;;;;6142018;23;20220;-82
2022/12/06 10:09:11;;;;;;;11.75;5.90;;;4.00;1.00;;;;;;6203107;23;20231;-81
2022/12/06 10:12:09;;;;;;;10.52;7.22;;;4.00;1.00;;;;;;6190026;23;20230;-83
2022/12/06 10:15:24;;;;;;;10.65;6.50;;;3.90;1.00;;;;;;6203078;23;20330;-80
2022/12/06 10:18:13;;;;;;;10.73;7.15;;;4.00;1.00;;;;;;6188876;23;20213;-83
2022/12/06 10:21:04;;;;;;;12.48;7.90;;;4.00;1.00;;;;;;6200222;23;20229;-82
2022/12/06 10:23:54;;;;;;;10.98;7.63;;;4.00;1.00;;;;;;6202226;23;20214;-82
2022/12/06 10:26:45;;;;;;;12.10;7.13;;;4.00;1.00;;;;;;6208245;23;20214;-86
2022/12/06 10:41:53;;;;;;;11.82;7.15;;;4.30;1.00;;;;;;6095463;23;20555;-86
2022/12/06 10:48:25;;;;;;;9.70;6.35;;;4.40;1.00;;;;;;5997594;23;20266;-85
2022/12/06 10:51:04;;;;;;;10.70;6.00;;;4.40;1.00;;;;;;6112627;23;20227;-86
2022/12/06 11:00:14;;;;;;;11.23;7.15;;;4.40;1.00;;;;;;6194744;22;20221;-82
2022/12/06 11:05:22;;;;;;;13.82;8.07;;;4.40;1.00;;;;;;6186766;22;20216;-81
2022/12/06 11:08:04;;;;;;;12.65;8.32;;;4.50;1.00;;;;;;6233567;23;20217;-80
2022/12/06 11:10:36;;;;;;;11.52;6.13;;;4.50;1.00;;;;;;6230198;22;20202;-86
2022/12/06 11:13:33;;;;;;;9.90;5.57;;;4.60;1.00;;;;;;6235503;22;20233;-87
2022/12/06 11:16:05;;;;;;;9.38;5.53;;;4.60;1.00;;;;;;6232650;23;20210;-82
2022/12/06 11:18:36;;;;;;;11.63;6.82;;;4.60;1.00;;;;;;6236816;23;20217;-85
2022/12/06 11:21:20;;;;;;;10.90;6.32;;;4.60;1.00;;;;;;6234512;22;21040;-85
2022/12/06 11:24:03;;;;;;;10.45;6.32;;;4.50;1.00;;;;;;6234395;23;20324;-83
2022/12/06 11:26:40;;;;;;;8.70;5.07;;;4.50;1.00;;;;;;6234191;22;20224;-85
2022/12/06 11:29:17;;;;;;;11.15;6.75;;;4.50;1.00;;;;;;6233025;22;20205;-78
2022/12/06 11:31:47;;;;;;;12.77;7.28;;;4.50;1.00;;;;;;6237053;23;20244;-83
2022/12/06 11:34:18;;;;;;;13.00;8.40;;;4.40;1.00;;;;;;6231429;22;20190;-80
2022/12/06 11:36:54;;;;;;;12.88;8.27;;;4.30;1.00;;;;;;6235144;22;20213;-84
2022/12/06 11:39:25;;;;;;;11.57;7.00;;;4.30;1.00;;;;;;6232586;22;20678;-78
2022/12/06 11:42:00;;;;;;;12.75;7.20;;;4.30;1.00;;;;;;6226832;22;20269;-78
2022/12/06 11:44:38;;;;;;;14.90;8.88;;;4.30;1.00;;;;;;6233483;23;20207;-82
2022/12/06 11:47:07;;;;;;;11.55;7.38;;;4.30;1.00;;;;;;6235100;22;20205;-84
2022/12/06 11:49:40;;;;;;;14.85;8.50;;;4.20;1.00;;;;;;6233021;23;20261;-79
2022/12/06 11:52:16;;;;;;;12.50;7.40;;;4.20;1.00;;;;;;6228205;23;20764;-78
2022/12/06 11:54:57;;;;;;;12.10;8.10;;;4.20;1.00;;;;;;6235263;23;20207;-87
2022/12/06 11:57:35;;;;;;;10.43;5.95;;;4.20;1.00;;;;;;6233658;22;20201;-80
2022/12/06 12:00:17;;;;;;;13.48;8.10;;;4.20;1.00;;;;;;6235678;22;20809;-79
2022/12/06 12:02:46;;;;;;;12.18;6.93;;;4.20;1.00;;;;;;6232920;23;20294;-83
2022/12/06 12:05:44;;;;;;;12.02;7.65;;;4.30;1.00;;;;;;6230957;22;20201;-80
2022/12/06 12:08:19;;;;;;;11.20;7.18;;;4.40;1.00;;;;;;6230544;22;20243;-79
2022/12/06 12:11:04;;;;;;;12.80;7.75;;;4.40;1.00;;;;;;6236669;22;20198;-86
2022/12/06 12:13:56;;;;;;;13.60;8.45;;;4.50;1.00;;;;;;6225217;22;20204;-77
2022/12/06 12:16:27;;;;;;;12.40;8.35;;;4.50;1.00;;;;;;6247662;22;20366;-82
2022/12/06 12:19:03;;;;;;;14.23;7.28;;;4.50;1.00;;;;;;6239241;23;20236;-88
2022/12/06 12:21:38;;;;;;;14.27;8.00;;;4.50;1.00;;;;;;6230687;22;20277;-80
2022/12/06 12:24:40;;;;;;;14.23;8.57;;;4.60;1.00;;;;;;6236841;23;20224;-82
2022/12/06 12:27:35;;;;;;;15.50;8.35;;;4.50;1.00;;;;;;6229594;23;20212;-79
2022/12/06 12:30:36;;;;;;;11.30;7.93;;;4.60;1.00;;;;;;6235077;22;20221;-87
2022/12/06 12:33:20;;;;;;;15.93;10.20;;;4.60;1.00;;;;;;6233262;23;20275;-81
2022/12/06 12:35:56;;;;;;;12.65;8.48;;;4.50;1.00;;;;;;6239453;23;20836;-88
2022/12/06 12:38:34;;;;;;;11.20;7.68;;;4.50;1.00;;;;;;6231060;23;20301;-81
2022/12/06 12:41:11;;;;;;;14.10;8.05;;;4.50;1.00;;;;;;6231651;22;20221;-82
2022/12/06 12:43:57;;;;;;;12.90;8.27;;;4.50;1.00;;;;;;6231900;23;20261;-84
2022/12/06 12:46:27;;;;;;;14.32;8.10;;;4.40;1.00;;;;;;6225702;22;20223;-79
2022/12/06 12:49:14;;;;;;;11.57;8.38;;;4.30;1.00;;;;;;6230541;23;20197;-81
2022/12/06 12:51:41;;;;;;;14.65;8.65;;;4.30;1.00;;;;;;6234660;22;20954;-85
2022/12/06 12:54:21;;;;;;;13.32;8.18;;;4.30;1.00;;;;;;6233220;23;20677;-82
2022/12/06 12:56:52;;;;;;;13.18;8.10;;;4.30;1.00;;;;;;6228953;23;20216;-81
2022/12/06 12:59:25;;;;;;;12.77;8.27;;;4.20;1.00;;;;;;6225798;22;20240;-80
2022/12/06 13:02:18;;;;;;;14.45;9.50;;;4.20;1.00;;;;;;6232164;23;20215;-85
2022/12/06 13:04:53;;;;;;;12.50;8.27;;;4.20;1.00;;;;;;6229264;23;20314;-78
2022/12/06 13:07:23;;;;;;;12.07;7.88;;;4.20;1.00;;;;;;6231349;23;20236;-81
2022/12/06 13:10:00;;;;;;;11.32;7.50;;;4.20;1.00;;;;;;6226417;22;20204;-84
2022/12/06 13:12:39;;;;;;;12.25;7.38;;;4.20;1.00;;;;;;6243818;22;20213;-85
2022/12/06 13:15:19;;;;;;;11.57;7.55;;;4.20;1.00;;;;;;6237295;23;20216;-86
2022/12/06 13:17:59;;;;;;;11.38;6.55;;;4.30;1.00;;;;;;6233093;23;20311;-85
2022/12/06 13:20:37;;;;;;;10.95;7.65;;;4.30;1.00;;;;;;6224611;22;22777;-86
2022/12/06 13:23:17;;;;;;;8.90;6.22;;;4.30;1.00;;;;;;6252547;22;20530;-82
2022/12/06 13:25:54;;;;;;;8.38;5.47;;;4.30;1.00;;;;;;6226011;22;20296;-80
2022/12/06 13:28:34;;;;;;;9.90;6.20;;;4.30;1.00;;;;;;6244436;22;20222;-79
2022/12/06 13:31:14;;;;;;;7.80;5.57;;;4.20;1.00;;;;;;6229968;22;20218;-82
2022/12/06 13:33:48;;;;;;;9.20;5.95;;;4.20;1.00;;;;;;6231705;22;20224;-80
2022/12/06 13:36:23;;;;;;;9.00;6.13;;;4.20;1.00;;;;;;6233825;22;20205;-79
2022/12/06 13:38:55;;;;;;;11.02;5.90;;;4.20;1.00;;;;;;6236342;22;20425;-83
2022/12/06 13:45:02;;;;;;;9.40;5.55;;;4.10;1.00;;;;;;6217274;23;20305;-87
2022/12/06 13:47:55;;;;;;;9.63;6.60;;;4.10;1.00;;;;;;6234690;22;20220;-78
2022/12/06 13:51:04;;;;;;;10.35;6.72;;;4.20;1.00;;;;;;6238708;22;21084;-85
2022/12/06 13:54:22;;;;;;;11.88;7.10;;;4.20;1.00;;;;;;6205682;23;20210;-82
2022/12/06 13:57:22;;;;;;;11.30;6.43;;;4.20;1.00;;;;;;6235600;23;20240;-84
2022/12/06 13:59:58;;;;;;;9.43;6.18;;;4.20;1.00;;;;;;6242552;22;20219;-84
2022/12/06 14:02:58;;;;;;;10.30;6.90;;;4.10;1.00;;;;;;6233052;22;20239;-82
2022/12/06 14:06:01;;;;;;;10.73;6.70;;;4.20;1.00;;;;;;6206460;22;20220;-81
2022/12/06 14:08:37;;;;;;;10.38;6.78;;;4.20;1.00;;;;;;6235113;22;20220;-83
2022/12/06 14:11:14;;;;;;;12.35;7.47;;;4.20;1.00;;;;;;6236652;23;20222;-84
2022/12/06 14:13:46;;;;;;;11.27;7.32;;;4.20;1.00;;;;;;6236569;23;20217;-83
2022/12/06 14:16:24;;;;;;;10.82;7.25;;;4.20;1.00;;;;;;6234458;23;20239;-78
2022/12/06 14:18:55;;;;;;;11.50;7.75;;;4.20;1.00;;;;;;6232298;23;20223;-80
2022/12/06 14:21:35;;;;;;;12.07;7.00;;;4.20;1.00;;;;;;6229218;23;20275;-79
2022/12/06 14:24:03;;;;;;;13.25;7.82;;;4.20;1.00;;;;;;6236345;23;20217;-77
2022/12/06 14:56:29;;;;;;;11.32;7.25;;;4.00;1.00;;;;;;5997632;23;20271;-83
2022/12/06 14:58:59;;;;;;;11.25;7.82;;;4.10;1.00;;;;;;6110465;23;20215;-81
2022/12/06 15:01:28;;;;;;;10.98;6.55;;;4.00;1.00;;;;;;6131929;23;20297;-81
2022/12/06 15:06:57;;;;;;;13.40;7.85;;;4.00;1.00;;;;;;6228371;23;20609;-81
2022/12/06 15:09:25;;;;;;;11.60;7.03;;;3.90;1.00;;;;;;6218126;22;20238;-84
2022/12/06 15:15:46;;;;;;;11.65;6.80;;;4.00;1.00;;;;;;6111521;23;20199;-84
2022/12/06 15:18:29;;;;;;;14.52;8.32;;;4.10;1.00;;;;;;6207964;22;20224;-82
2022/12/06 15:21:20;;;;;;;;;;;;;;;;;;;;;
2022/12/06 15:23:58;;;;;;;9.90;6.45;;;4.10;1.00;;;;;;6204581;23;50778;-81
2022/12/06 15:26:28;;;;;;;10.95;7.45;;;4.10;1.00;;;;;;6230061;23;20213;-81
2022/12/06 15:29:08;;;;;;;11.13;6.55;;;4.10;1.00;;;;;;6215515;23;20217;-81
2022/12/06 15:31:42;;;;;;;11.15;7.65;;;4.10;1.00;;;;;;6224747;23;20617;-79
2022/12/06 15:34:27;;;;;;;12.65;7.70;;;4.00;1.00;;;;;;6227666;22;20221;-81
2022/12/06 15:37:05;;;;;;;11.80;7.78;;;4.00;1.00;;;;;;6238909;22;20220;-81
2022/12/06 15:39:41;;;;;;;11.75;7.47;;;4.00;1.00;;;;;;6250945;22;20210;-80
2022/12/06 15:42:20;;;;;;;16.35;7.60;;;4.10;1.00;;;;;;6230837;22;20193;-81
2022/12/06 15:50:08;;;;;;;13.57;8.18;;;4.10;1.00;;;;;;6219248;22;20195;-84
2022/12/06 15:52:38;;;;;;;14.70;10.93;;;4.20;1.00;;;;;;6209957;22;20209;-81
2022/12/06 15:55:18;;;;;;;12.75;9.38;;;4.20;1.00;;;;;;6225006;22;20201;-82
2022/12/06 15:57:46;;;;;;;17.42;12.75;;;4.20;1.00;;;;;;6208558;23;20202;-84
2022/12/06 16:00:25;;;;;;;12.70;8.98;;;4.10;1.00;;;;;;6198144;22;20216;-84
2022/12/06 16:05:29;;;;;;;14.35;8.75;;;4.10;1.00;;;;;;6205719;23;20216;-85
2022/12/06 16:10:37;;;;;;;14.25;7.18;;;4.20;1.00;;;;;;6222907;22;20223;-80
2022/12/06 16:13:27;;;;;;;11.70;7.03;;;4.20;1.00;;;;;;6207403;22;20216;-81
2022/12/06 16:16:05;;;;;;;11.65;7.50;;;4.20;1.00;;;;;;6240786;23;20209;-80
2022/12/06 16:24:10;;;;;;;13.85;7.97;;;4.10;1.00;;;;;;6214996;22;20205;-83
2022/12/06 16:26:40;;;;;;;10.60;6.70;;;4.10;1.00;;;;;;6186526;22;20194;-83
2022/12/06 16:29:22;;;;;;;11.02;7.15;;;4.10;1.00;;;;;;6254453;22;20221;-81
2022/12/06 16:31:49;;;;;;;11.73;7.05;;;4.10;1.00;;;;;;6271769;22;20200;-82
2022/12/06 16:34:20;;;;;;;11.50;7.60;;;4.10;1.00;;;;;;6268549;22;20205;-81
2022/12/06 16:39:44;;;;;;;12.95;7.30;;;4.20;1.00;;;;;;6231584;22;20213;-81
2022/12/06 16:42:11;;;;;;;11.07;7.13;;;4.20;1.00;;;;;;6222758;22;20232;-83
2022/12/06 16:44:49;;;;;;;11.80;7.70;;;4.20;1.00;;;;;;6238379;22;20204;-83